Time;durP1;ratioP1;P1;durP2;ratioP2;P2;SDS_P1;SDS_P2;PMS_P1;PMS_P2;Temp;Humidity;BMP_temperature;BMP_pressure;BME280_temperature;BME280_humidity;BME280_pressure;Samples;Min_cycle;Max_cycle;Signal;HPM_P1;HPM_P2
2023/04/25 00:02:01;;;;;;;11.90;4.03;;;5.20;99.90;;;;;;4989087;28;20057;-64
2023/04/25 00:04:27;;;;;;;13.50;3.67;;;5.20;99.90;;;;;;4986598;28;20045;-63
2023/04/25 00:06:55;;;;;;;8.65;3.60;;;5.20;99.90;;;;;;4989656;28;20042;-64
2023/04/25 00:09:22;;;;;;;13.45;4.20;;;5.20;99.90;;;;;;4989783;28;20105;-63
2023/04/25 00:11:48;;;;;;;15.35;5.05;;;5.20;99.90;;;;;;4989927;28;20035;-65
2023/04/25 00:14:14;;;;;;;11.07;4.32;;;5.20;99.90;;;;;;4990556;28;20027;-64
2023/04/25 00:16:40;;;;;;;16.38;3.85;;;5.20;99.90;;;;;;4973040;28;20081;-64
2023/04/25 00:19:07;;;;;;;16.15;4.70;;;5.20;99.90;;;;;;4990601;28;20113;-65
2023/04/25 00:21:33;;;;;;;18.90;6.43;;;5.20;99.90;;;;;;4994961;28;20050;-65
2023/04/25 00:23:59;;;;;;;14.93;4.70;;;5.20;99.90;;;;;;4990042;28;20053;-65
2023/04/25 00:26:25;;;;;;;16.48;4.20;;;5.20;99.90;;;;;;4992384;28;20042;-67
2023/04/25 00:28:50;;;;;;;11.88;4.53;;;5.30;99.90;;;;;;4991658;28;20034;-65
2023/04/25 00:31:16;;;;;;;13.90;5.05;;;5.30;99.90;;;;;;4993246;28;20026;-63
2023/04/25 00:33:41;;;;;;;9.77;4.22;;;5.30;99.90;;;;;;4988344;28;20035;-65
2023/04/25 00:36:07;;;;;;;14.80;4.40;;;5.30;99.90;;;;;;4989521;28;20804;-65
2023/04/25 00:38:33;;;;;;;9.57;4.32;;;5.20;99.90;;;;;;4991513;28;20039;-65
2023/04/25 00:40:59;;;;;;;18.75;6.30;;;5.10;99.90;;;;;;4991828;28;20034;-67
2023/04/25 00:43:29;;;;;;;16.85;4.82;;;5.10;99.90;;;;;;4992780;28;20084;-64
2023/04/25 00:45:57;;;;;;;28.63;5.25;;;5.00;99.90;;;;;;4989299;28;20038;-64
2023/04/25 00:48:23;;;;;;;19.40;4.20;;;4.90;99.90;;;;;;4999177;28;20018;-65
2023/04/25 00:50:53;;;;;;;12.40;4.22;;;4.90;99.90;;;;;;4991790;28;20160;-64
2023/04/25 00:53:23;;;;;;;15.52;4.15;;;4.80;99.90;;;;;;4993006;28;20023;-64
2023/04/25 00:55:50;;;;;;;19.35;4.78;;;4.70;99.90;;;;;;4991254;28;20088;-65
2023/04/25 00:58:17;;;;;;;11.13;4.50;;;4.70;99.90;;;;;;4993729;28;20044;-64
2023/04/25 01:00:43;;;;;;;11.32;4.82;;;4.60;99.90;;;;;;4992798;28;20035;-64
2023/04/25 01:03:10;;;;;;;10.68;4.70;;;4.60;99.90;;;;;;4993523;28;20432;-65
2023/04/25 01:05:35;;;;;;;15.38;5.20;;;4.50;99.90;;;;;;4987988;28;20829;-62
2023/04/25 01:08:01;;;;;;;19.88;4.97;;;4.50;99.90;;;;;;4989038;28;20026;-65
2023/04/25 01:10:27;;;;;;;18.30;4.72;;;4.40;99.90;;;;;;4987557;28;20101;-64
2023/04/25 01:12:53;;;;;;;19.85;5.18;;;4.40;99.90;;;;;;4993030;28;20023;-65
2023/04/25 01:15:18;;;;;;;22.88;5.90;;;4.40;99.90;;;;;;4989037;28;20400;-63
2023/04/25 01:17:44;;;;;;;17.38;4.55;;;4.40;99.90;;;;;;4973750;28;20129;-65
2023/04/25 01:20:11;;;;;;;14.73;4.72;;;4.40;99.90;;;;;;4992867;28;20101;-66
2023/04/25 01:22:37;;;;;;;14.65;4.70;;;4.30;99.90;;;;;;4989915;28;20045;-66
2023/04/25 01:25:04;;;;;;;21.63;6.30;;;4.30;99.90;;;;;;4993570;28;20097;-64
2023/04/25 01:27:30;;;;;;;15.70;5.63;;;4.30;99.90;;;;;;4991077;28;20029;-65
2023/04/25 01:29:56;;;;;;;20.80;5.68;;;4.30;99.90;;;;;;4993138;28;20492;-66
2023/04/25 01:32:23;;;;;;;28.92;6.25;;;4.20;99.90;;;;;;4988000;28;20037;-64
2023/04/25 01:34:49;;;;;;;16.33;6.22;;;4.20;99.90;;;;;;4993022;28;20034;-64
2023/04/25 01:37:16;;;;;;;26.83;5.75;;;4.30;99.90;;;;;;4991499;28;20038;-64
2023/04/25 01:39:42;;;;;;;16.65;5.35;;;4.40;99.90;;;;;;4991146;28;20052;-64
2023/04/25 01:42:08;;;;;;;18.17;5.75;;;4.50;99.90;;;;;;4989797;28;20023;-64
2023/04/25 01:44:33;;;;;;;16.60;5.15;;;4.60;99.90;;;;;;4990207;28;20512;-66
2023/04/25 01:46:59;;;;;;;17.80;5.45;;;4.70;99.90;;;;;;4990676;28;20451;-65
2023/04/25 01:49:25;;;;;;;18.33;5.32;;;4.80;99.90;;;;;;4992786;28;20042;-64
2023/04/25 01:51:50;;;;;;;15.75;4.53;;;5.00;99.90;;;;;;4986592;28;20034;-64
2023/04/25 01:54:18;;;;;;;15.07;5.07;;;5.10;99.90;;;;;;4990591;28;20121;-66
2023/04/25 01:56:43;;;;;;;15.90;5.53;;;5.20;99.90;;;;;;4991660;28;20100;-66
2023/04/25 01:59:09;;;;;;;15.35;5.43;;;5.20;99.90;;;;;;4989003;28;20484;-66
2023/04/25 02:01:35;;;;;;;21.00;4.57;;;5.30;99.90;;;;;;4990616;28;20031;-66
2023/04/25 02:04:00;;;;;;;12.65;4.88;;;5.40;99.90;;;;;;4990011;28;20515;-66
2023/04/25 02:06:26;;;;;;;16.75;5.03;;;5.40;99.90;;;;;;4993008;28;20026;-67
2023/04/25 02:08:51;;;;;;;15.52;4.45;;;5.50;99.90;;;;;;4987449;28;20101;-66
2023/04/25 02:11:17;;;;;;;17.48;5.95;;;5.50;99.90;;;;;;4992309;28;20022;-66
2023/04/25 02:13:42;;;;;;;29.83;4.78;;;5.50;99.90;;;;;;4988385;28;20029;-66
2023/04/25 02:16:08;;;;;;;9.70;4.15;;;5.50;99.90;;;;;;4987601;28;20124;-66
2023/04/25 02:18:34;;;;;;;15.32;5.18;;;5.50;99.90;;;;;;4964036;28;20504;-66
2023/04/25 02:21:00;;;;;;;13.10;3.45;;;5.50;99.90;;;;;;4991933;28;20041;-66
2023/04/25 02:23:26;;;;;;;15.38;4.65;;;5.50;99.90;;;;;;4988673;28;20022;-66
2023/04/25 02:25:52;;;;;;;19.45;4.68;;;5.40;99.90;;;;;;4989760;28;20041;-66
2023/04/25 02:28:18;;;;;;;18.98;4.90;;;5.30;99.90;;;;;;4988165;28;20033;-65
2023/04/25 02:30:43;;;;;;;15.93;4.55;;;5.20;99.90;;;;;;4988091;28;20373;-67
2023/04/25 02:33:09;;;;;;;15.50;4.90;;;5.10;99.90;;;;;;4990362;28;20060;-65
2023/04/25 02:35:35;;;;;;;16.85;4.75;;;5.00;99.90;;;;;;4987629;28;20037;-66
2023/04/25 02:38:00;;;;;;;13.75;4.38;;;4.90;99.90;;;;;;4989528;28;20026;-67
2023/04/25 02:40:26;;;;;;;8.65;4.43;;;4.80;99.90;;;;;;4990699;28;20030;-66
2023/04/25 02:42:51;;;;;;;9.85;4.80;;;4.80;99.90;;;;;;4990189;28;20042;-65
2023/04/25 02:45:17;;;;;;;17.38;4.82;;;4.70;99.90;;;;;;4989701;28;20061;-67
2023/04/25 02:47:43;;;;;;;24.85;5.15;;;4.70;99.90;;;;;;4990743;28;20038;-66
2023/04/25 02:50:09;;;;;;;12.82;6.30;;;4.60;99.90;;;;;;4989441;28;20018;-66
2023/04/25 02:52:35;;;;;;;22.52;5.68;;;4.60;99.90;;;;;;5003320;28;20697;-67
2023/04/25 02:55:00;;;;;;;17.35;5.50;;;4.60;99.90;;;;;;4989712;28;20026;-66
2023/04/25 02:57:26;;;;;;;16.77;4.88;;;4.60;99.90;;;;;;4993701;28;20033;-67
2023/04/25 02:59:51;;;;;;;15.48;4.85;;;4.60;99.90;;;;;;4992454;28;20034;-66
2023/04/25 03:02:17;;;;;;;17.60;5.60;;;4.70;99.90;;;;;;4991170;28;20022;-66
2023/04/25 03:04:43;;;;;;;11.00;4.85;;;4.70;99.90;;;;;;4989387;28;20053;-66
2023/04/25 03:07:08;;;;;;;16.05;4.88;;;4.70;99.90;;;;;;4987727;28;20038;-67
2023/04/25 03:09:34;;;;;;;13.50;4.72;;;4.80;99.90;;;;;;4985140;28;20484;-66
2023/04/25 03:12:00;;;;;;;20.02;5.32;;;4.80;99.90;;;;;;4989034;28;20026;-67
2023/04/25 03:14:25;;;;;;;14.18;5.70;;;4.80;99.90;;;;;;4989554;28;20046;-66
2023/04/25 03:16:51;;;;;;;13.15;6.07;;;4.90;99.90;;;;;;4990368;28;20518;-66
2023/04/25 03:19:17;;;;;;;11.65;4.07;;;4.90;99.90;;;;;;4971319;28;20049;-67
2023/04/25 03:21:43;;;;;;;14.35;4.93;;;4.90;99.90;;;;;;4989110;28;20033;-66
2023/04/25 03:24:10;;;;;;;12.85;4.50;;;4.90;99.90;;;;;;4988169;28;20034;-68
2023/04/25 03:26:36;;;;;;;23.42;5.07;;;4.80;99.90;;;;;;4988734;28;20114;-64
2023/04/25 03:29:02;;;;;;;13.25;5.25;;;4.80;99.90;;;;;;4987915;28;20117;-66
2023/04/25 03:31:27;;;;;;;20.63;4.82;;;4.90;99.90;;;;;;4984293;28;20066;-67
2023/04/25 03:33:53;;;;;;;9.27;4.05;;;4.90;99.90;;;;;;4987989;28;20488;-65
2023/04/25 03:36:18;;;;;;;18.73;5.32;;;4.90;99.90;;;;;;4988218;28;20399;-66
2023/04/25 03:38:44;;;;;;;9.45;4.18;;;4.90;99.90;;;;;;4988783;28;20031;-67
2023/04/25 03:41:09;;;;;;;18.17;4.68;;;5.00;99.90;;;;;;4986590;28;20087;-65
2023/04/25 03:43:35;;;;;;;18.23;4.78;;;5.00;99.90;;;;;;4988620;28;20041;-66
2023/04/25 03:46:01;;;;;;;16.10;5.22;;;5.00;99.90;;;;;;4983653;28;20095;-67
2023/04/25 03:48:27;;;;;;;15.30;5.13;;;5.00;99.90;;;;;;4988357;28;20031;-66
2023/04/25 03:50:54;;;;;;;22.05;4.95;;;5.10;99.90;;;;;;4984972;28;20077;-64
2023/04/25 03:53:20;;;;;;;20.02;5.63;;;5.10;99.90;;;;;;4989111;28;20054;-66
2023/04/25 03:55:45;;;;;;;15.30;5.55;;;5.10;99.90;;;;;;4989833;28;20054;-66
2023/04/25 03:58:11;;;;;;;16.83;4.57;;;5.10;99.90;;;;;;4992288;28;20080;-67
2023/04/25 04:00:36;;;;;;;10.52;4.35;;;5.10;99.90;;;;;;4992372;28;20433;-65
2023/04/25 04:03:02;;;;;;;25.00;6.07;;;5.10;99.90;;;;;;4994139;28;20030;-66
2023/04/25 04:05:28;;;;;;;12.80;4.95;;;5.10;99.90;;;;;;4992484;28;20041;-66
2023/04/25 04:07:55;;;;;;;8.75;4.20;;;5.10;99.90;;;;;;4990859;28;20125;-66
2023/04/25 04:10:20;;;;;;;13.25;4.15;;;5.20;99.90;;;;;;4988926;28;20023;-67
2023/04/25 04:12:46;;;;;;;14.90;4.65;;;5.20;99.90;;;;;;4993401;28;20034;-66
2023/04/25 04:15:12;;;;;;;13.02;4.30;;;5.20;99.90;;;;;;4987769;28;20062;-67
2023/04/25 04:17:38;;;;;;;17.00;3.88;;;5.20;99.90;;;;;;4991759;28;20136;-65
2023/04/25 04:20:04;;;;;;;11.93;3.70;;;5.30;99.90;;;;;;4990217;28;20427;-66
2023/04/25 04:22:30;;;;;;;13.50;3.80;;;5.30;99.90;;;;;;4991302;28;20038;-67
2023/04/25 04:24:56;;;;;;;10.75;3.35;;;5.40;99.90;;;;;;4993052;28;20037;-66
2023/04/25 04:27:22;;;;;;;20.95;4.38;;;5.40;99.90;;;;;;4996431;28;20052;-67
2023/04/25 04:29:48;;;;;;;8.63;3.47;;;5.40;99.90;;;;;;4991894;28;20499;-66
2023/04/25 04:32:14;;;;;;;22.48;4.20;;;5.40;99.90;;;;;;4991032;28;20022;-65
2023/04/25 04:34:41;;;;;;;12.32;4.10;;;5.40;99.90;;;;;;4990455;28;20045;-67
2023/04/25 04:37:06;;;;;;;13.88;3.97;;;5.50;99.90;;;;;;4988824;28;20113;-66
2023/04/25 04:39:33;;;;;;;20.35;4.55;;;5.50;99.90;;;;;;4992840;28;20106;-66
2023/04/25 04:41:59;;;;;;;19.67;4.63;;;5.60;99.90;;;;;;4989488;28;20085;-67
2023/04/25 04:44:25;;;;;;;9.90;3.65;;;5.60;99.90;;;;;;4991587;28;20026;-66
2023/04/25 04:46:51;;;;;;;8.75;3.38;;;5.70;99.90;;;;;;4991284;28;20031;-66
2023/04/25 04:49:17;;;;;;;6.65;3.08;;;5.70;99.90;;;;;;5006022;28;20117;-66
2023/04/25 04:51:46;;;;;;;8.43;3.65;;;5.80;99.90;;;;;;4991630;28;20054;-65
2023/04/25 04:54:12;;;;;;;9.20;3.75;;;5.80;99.90;;;;;;4989268;28;20061;-65
2023/04/25 04:56:38;;;;;;;16.23;4.03;;;5.90;99.90;;;;;;4990872;28;20472;-63
2023/04/25 04:59:03;;;;;;;10.98;3.72;;;6.00;99.90;;;;;;4991217;28;20496;-63
2023/04/25 05:01:32;;;;;;;13.07;3.88;;;6.00;99.90;;;;;;4992918;28;20057;-64
2023/04/25 05:04:00;;;;;;;7.88;3.08;;;6.10;99.90;;;;;;4985354;28;20038;-65
2023/04/25 05:06:28;;;;;;;13.00;3.72;;;6.20;99.90;;;;;;4992767;28;20054;-64
2023/04/25 05:08:54;;;;;;;12.85;3.92;;;6.30;99.90;;;;;;4988412;28;20043;-65
2023/04/25 05:11:20;;;;;;;11.82;3.53;;;6.30;99.90;;;;;;4992282;28;20019;-65
2023/04/25 05:13:46;;;;;;;11.02;4.95;;;6.40;99.90;;;;;;4989953;28;20400;-65
2023/04/25 05:16:12;;;;;;;8.95;4.55;;;6.40;99.90;;;;;;4992341;28;20034;-65
2023/04/25 05:18:39;;;;;;;10.15;4.00;;;6.50;99.90;;;;;;4970230;28;20042;-65
2023/04/25 05:21:05;;;;;;;8.95;4.00;;;6.50;99.90;;;;;;4991707;28;20084;-65
2023/04/25 05:23:32;;;;;;;12.52;3.72;;;6.60;99.90;;;;;;4990817;28;20109;-65
2023/04/25 05:25:58;;;;;;;10.40;4.10;;;6.60;99.90;;;;;;5006606;28;20121;-65
2023/04/25 05:28:23;;;;;;;14.05;4.50;;;6.60;99.90;;;;;;4987621;28;20496;-65
2023/04/25 05:30:49;;;;;;;12.60;4.05;;;6.60;99.90;;;;;;4991550;28;20066;-65
2023/04/25 05:33:15;;;;;;;6.80;3.60;;;6.70;99.90;;;;;;4989855;28;20491;-65
2023/04/25 05:35:41;;;;;;;10.65;4.97;;;6.70;99.90;;;;;;4991560;28;20027;-65
2023/04/25 05:38:06;;;;;;;8.13;4.18;;;6.60;99.90;;;;;;4989798;28;20026;-65
2023/04/25 05:40:32;;;;;;;9.93;3.88;;;6.60;99.90;;;;;;4991394;28;20037;-65
2023/04/25 05:42:58;;;;;;;12.55;4.90;;;6.70;99.90;;;;;;4989422;28;20105;-65
2023/04/25 05:45:23;;;;;;;18.05;5.78;;;6.60;99.90;;;;;;4991729;28;20066;-65
2023/04/25 05:47:49;;;;;;;18.35;4.07;;;6.60;99.90;;;;;;4990847;28;20030;-65
2023/04/25 05:50:14;;;;;;;16.27;5.43;;;6.60;99.90;;;;;;4989563;28;20031;-65
2023/04/25 05:52:40;;;;;;;9.40;4.22;;;6.60;99.90;;;;;;4987178;28;20116;-65
2023/04/25 05:55:06;;;;;;;12.95;5.38;;;6.70;99.90;;;;;;4989392;28;20018;-67
2023/04/25 05:57:31;;;;;;;14.25;4.65;;;6.80;99.90;;;;;;4990885;28;20073;-66
2023/04/25 05:59:57;;;;;;;16.08;4.70;;;6.80;99.90;;;;;;4986066;28;20667;-66
2023/04/25 06:02:23;;;;;;;15.07;4.40;;;7.00;99.90;;;;;;5005755;28;20049;-65
2023/04/25 06:04:51;;;;;;;16.83;4.95;;;7.00;99.90;;;;;;4988707;28;20044;-66
2023/04/25 06:07:18;;;;;;;13.13;4.18;;;7.30;99.90;;;;;;4989444;28;20037;-66
2023/04/25 06:09:44;;;;;;;13.70;4.97;;;7.50;99.90;;;;;;4987232;28;20061;-66
2023/04/25 06:12:10;;;;;;;14.10;5.18;;;7.80;99.90;;;;;;4990032;28;20022;-66
2023/04/25 06:14:35;;;;;;;11.68;4.57;;;8.10;99.90;;;;;;4984940;28;20507;-65
2023/04/25 06:17:06;;;;;;;12.95;4.97;;;8.50;99.90;;;;;;4991248;28;20113;-65
2023/04/25 06:19:33;;;;;;;8.52;4.32;;;8.60;99.90;;;;;;4973107;28;20385;-67
2023/04/25 06:21:58;;;;;;;10.73;3.95;;;8.70;99.90;;;;;;4989836;28;20121;-66
2023/04/25 06:24:24;;;;;;;16.30;4.78;;;8.50;99.90;;;;;;4987683;28;20114;-66
2023/04/25 06:26:49;;;;;;;11.27;2.90;;;8.50;99.90;;;;;;4990320;28;20084;-66
2023/04/25 06:29:15;;;;;;;17.40;3.80;;;8.60;99.90;;;;;;4988882;28;20023;-65
2023/04/25 06:31:41;;;;;;;15.18;4.75;;;8.50;99.90;;;;;;4986815;28;20089;-65
2023/04/25 06:34:06;;;;;;;21.35;6.05;;;8.70;99.90;;;;;;4988553;28;20022;-66
2023/04/25 06:36:32;;;;;;;13.55;4.38;;;9.20;99.90;;;;;;4986848;28;20022;-66
2023/04/25 06:38:57;;;;;;;19.50;3.80;;;9.60;99.90;;;;;;4990029;28;20073;-66
2023/04/25 06:41:23;;;;;;;20.00;3.17;;;9.80;99.90;;;;;;4988958;28;20026;-66
2023/04/25 06:43:48;;;;;;;12.55;4.65;;;11.00;99.90;;;;;;4985635;28;20034;-65
2023/04/25 06:46:14;;;;;;;15.88;3.92;;;12.20;99.90;;;;;;4985316;28;20022;-66
2023/04/25 06:48:39;;;;;;;15.77;3.95;;;13.70;98.70;;;;;;4992615;28;20037;-66
2023/04/25 06:51:05;;;;;;;17.67;3.30;;;13.80;96.80;;;;;;4990657;28;20058;-66
2023/04/25 06:53:30;;;;;;;10.73;3.60;;;13.40;95.90;;;;;;4981359;28;20030;-66
2023/04/25 06:55:56;;;;;;;9.60;4.50;;;12.70;97.20;;;;;;4988082;28;20019;-67
2023/04/25 06:58:22;;;;;;;17.05;3.70;;;11.70;99.40;;;;;;4989182;28;20180;-66
2023/04/25 07:00:48;;;;;;;11.13;3.83;;;11.60;99.30;;;;;;4990150;28;20033;-67
2023/04/25 07:03:13;;;;;;;10.77;2.53;;;11.20;99.90;;;;;;4988866;28;20104;-66
2023/04/25 07:05:39;;;;;;;14.48;4.45;;;10.70;99.90;;;;;;4989341;28;20038;-66
2023/04/25 07:08:04;;;;;;;11.90;3.05;;;10.90;99.90;;;;;;4979114;28;20034;-66
2023/04/25 07:10:30;;;;;;;9.32;3.15;;;11.20;99.90;;;;;;4989154;28;20032;-66
2023/04/25 07:12:56;;;;;;;14.57;3.60;;;11.80;99.90;;;;;;4990041;28;20026;-66
2023/04/25 07:15:21;;;;;;;17.98;3.72;;;13.40;97.60;;;;;;4991898;28;20026;-66
2023/04/25 07:17:47;;;;;;;10.68;2.83;;;13.80;95.90;;;;;;4986796;28;20125;-66
2023/04/25 07:20:12;;;;;;;9.95;2.40;;;14.30;96.50;;;;;;4969834;28;20471;-66
2023/04/25 07:22:38;;;;;;;9.93;2.30;;;15.20;93.10;;;;;;4987911;28;20038;-67
2023/04/25 07:25:05;;;;;;;8.57;2.63;;;16.00;91.30;;;;;;4989332;28;20033;-67
2023/04/25 07:27:31;;;;;;;13.65;2.58;;;16.80;91.00;;;;;;4986916;28;20407;-66
2023/04/25 07:29:57;;;;;;;11.95;2.33;;;16.40;89.30;;;;;;4982827;28;20085;-67
2023/04/25 07:32:23;;;;;;;7.93;2.53;;;15.60;90.30;;;;;;4991223;28;20014;-66
2023/04/25 07:34:48;;;;;;;15.57;2.63;;;15.40;89.30;;;;;;4988328;28;20046;-66
2023/04/25 07:37:14;;;;;;;10.15;2.55;;;15.10;90.90;;;;;;4987408;28;20045;-66
2023/04/25 07:39:40;;;;;;;8.75;2.33;;;15.30;92.20;;;;;;4988141;28;20053;-66
2023/04/25 07:42:07;;;;;;;15.35;2.78;;;15.70;90.40;;;;;;4982382;28;20073;-67
2023/04/25 07:44:38;;;;;;;10.80;2.20;;;15.80;90.60;;;;;;4989421;28;20448;-66
2023/04/25 07:47:07;;;;;;;8.48;2.20;;;16.30;88.40;;;;;;4990335;28;20023;-66
2023/04/25 07:49:37;;;;;;;14.70;1.92;;;16.60;86.50;;;;;;4994601;28;20419;-67
2023/04/25 07:52:04;;;;;;;8.05;2.40;;;16.20;87.30;;;;;;5001697;28;20061;-66
2023/04/25 07:54:29;;;;;;;10.00;2.83;;;16.30;84.60;;;;;;4987900;28;20070;-66
2023/04/25 07:56:56;;;;;;;11.45;2.58;;;15.20;86.50;;;;;;4989763;28;20034;-66
2023/04/25 07:59:22;;;;;;;8.13;2.28;;;14.20;90.30;;;;;;4988107;28;20029;-66
2023/04/25 08:01:47;;;;;;;17.13;3.08;;;13.60;89.90;;;;;;4988695;28;20032;-66
2023/04/25 08:04:13;;;;;;;14.98;3.03;;;12.80;91.20;;;;;;4987263;28;20049;-67
2023/04/25 08:06:40;;;;;;;10.30;2.60;;;12.10;92.20;;;;;;4990859;28;20019;-66
2023/04/25 08:09:05;;;;;;;13.95;2.72;;;11.50;92.40;;;;;;4988349;28;20038;-66
2023/04/25 08:11:31;;;;;;;11.13;2.83;;;11.10;93.90;;;;;;4988602;28;20113;-66
2023/04/25 08:13:57;;;;;;;13.32;4.25;;;10.70;93.90;;;;;;4982559;28;20035;-66
2023/04/25 08:16:22;;;;;;;11.73;3.15;;;10.40;95.80;;;;;;4990359;28;20022;-65
2023/04/25 08:18:49;;;;;;;12.98;2.80;;;10.30;96.60;;;;;;4980621;28;20042;-66
2023/04/25 08:21:15;;;;;;;12.45;2.80;;;10.20;98.20;;;;;;4969972;28;20586;-66
2023/04/25 08:23:41;;;;;;;12.73;2.55;;;10.40;98.50;;;;;;4998499;28;20070;-66
2023/04/25 08:26:07;;;;;;;15.18;2.90;;;10.90;98.60;;;;;;4983998;28;20050;-67
2023/04/25 08:28:32;;;;;;;15.40;4.40;;;11.70;96.60;;;;;;4987944;28;20030;-66
2023/04/25 08:30:58;;;;;;;11.50;2.63;;;12.40;95.10;;;;;;4987080;28;20173;-66
2023/04/25 08:33:23;;;;;;;9.52;2.60;;;12.60;95.60;;;;;;4986338;28;20089;-67
2023/04/25 08:35:49;;;;;;;11.07;2.70;;;12.90;92.10;;;;;;4988008;28;20027;-66
2023/04/25 08:38:15;;;;;;;6.18;2.15;;;13.10;91.70;;;;;;4986925;28;20563;-66
2023/04/25 08:40:43;;;;;;;7.88;2.85;;;13.50;92.80;;;;;;4989456;28;20034;-67
2023/04/25 08:43:11;;;;;;;9.20;1.85;;;14.20;90.00;;;;;;4981787;28;20038;-66
2023/04/25 08:45:40;;;;;;;12.35;2.47;;;13.90;91.20;;;;;;4990079;28;20055;-66
2023/04/25 08:48:12;;;;;;;9.80;2.45;;;13.40;90.50;;;;;;4989595;28;20089;-66
2023/04/25 08:50:48;;;;;;;8.57;2.00;;;13.00;90.90;;;;;;4989696;28;20033;-66
2023/04/25 08:53:19;;;;;;;5.25;1.98;;;12.30;90.90;;;;;;4991938;28;20034;-66
2023/04/25 08:55:46;;;;;;;10.25;2.70;;;11.60;91.30;;;;;;4988196;28;20399;-66
2023/04/25 08:58:12;;;;;;;13.50;2.40;;;11.20;91.80;;;;;;4986251;28;20030;-65
2023/04/25 09:00:38;;;;;;;7.30;2.20;;;10.90;92.60;;;;;;4993425;28;20038;-66
2023/04/25 09:03:05;;;;;;;8.75;1.77;;;10.70;93.50;;;;;;4985783;28;20555;-66
2023/04/25 09:05:35;;;;;;;11.10;2.85;;;10.40;92.50;;;;;;4991910;28;20496;-66
2023/04/25 09:08:01;;;;;;;8.23;2.10;;;10.40;92.90;;;;;;5006270;28;20026;-66
2023/04/25 09:10:27;;;;;;;7.35;1.35;;;10.30;93.80;;;;;;4991030;28;20053;-65
2023/04/25 09:13:04;;;;;;;13.23;3.13;;;10.10;93.60;;;;;;4989786;28;20540;-65
2023/04/25 09:15:31;;;;;;;7.43;2.20;;;9.80;95.00;;;;;;4993077;28;20053;-65
2023/04/25 09:17:57;;;;;;;9.30;2.25;;;9.70;94.50;;;;;;4988328;28;20026;-65
2023/04/25 09:20:24;;;;;;;9.60;2.10;;;9.60;94.80;;;;;;4976118;28;20038;-66
2023/04/25 09:23:05;;;;;;;8.70;1.77;;;9.60;95.90;;;;;;5000324;28;20027;-66
2023/04/25 09:25:36;;;;;;;8.10;2.40;;;9.50;96.30;;;;;;4988341;28;20036;-66
2023/04/25 09:28:05;;;;;;;11.57;2.33;;;9.60;96.20;;;;;;5004451;28;20500;-66
2023/04/25 09:30:32;;;;;;;11.15;2.10;;;9.70;96.40;;;;;;4991915;28;20117;-66
2023/04/25 09:33:04;;;;;;;10.65;2.45;;;9.80;96.10;;;;;;4991469;28;20022;-65
2023/04/25 09:35:34;;;;;;;11.63;2.90;;;9.90;96.00;;;;;;4990043;28;20018;-68
2023/04/25 09:38:00;;;;;;;11.32;2.17;;;10.20;95.70;;;;;;4987228;28;20052;-65
2023/04/25 09:40:26;;;;;;;12.63;2.55;;;10.30;95.80;;;;;;4988313;28;20476;-65
2023/04/25 09:42:51;;;;;;;13.93;3.40;;;10.70;95.80;;;;;;4988071;28;20023;-66
2023/04/25 09:45:17;;;;;;;9.80;3.15;;;10.90;95.50;;;;;;4992725;28;20042;-66
2023/04/25 09:47:46;;;;;;;11.85;2.33;;;11.10;94.90;;;;;;5003061;28;20030;-65
2023/04/25 09:50:16;;;;;;;10.88;2.28;;;11.20;93.70;;;;;;4987813;28;20030;-66
2023/04/25 09:52:41;;;;;;;9.27;2.83;;;11.50;92.20;;;;;;4990463;28;20421;-66
2023/04/25 09:55:07;;;;;;;10.63;2.40;;;12.30;92.60;;;;;;4990474;28;20088;-66
2023/04/25 09:57:33;;;;;;;11.70;2.13;;;13.30;90.60;;;;;;4992304;28;20026;-66
2023/04/25 10:00:00;;;;;;;8.68;2.13;;;13.10;92.10;;;;;;4989158;28;20049;-66
2023/04/25 10:02:27;;;;;;;8.45;2.30;;;13.00;90.80;;;;;;4991696;28;20073;-66
2023/04/25 10:04:54;;;;;;;13.02;2.90;;;12.40;90.90;;;;;;5005931;28;20095;-66
2023/04/25 10:07:28;;;;;;;8.75;2.95;;;11.80;91.40;;;;;;4988507;28;20553;-66
2023/04/25 10:10:03;;;;;;;7.93;2.33;;;11.70;92.00;;;;;;4985900;28;20029;-66
2023/04/25 10:12:30;;;;;;;9.02;1.77;;;11.40;92.00;;;;;;4988725;28;20026;-67
2023/04/25 10:14:57;;;;;;;11.43;3.40;;;11.10;94.10;;;;;;4984664;28;20077;-66
2023/04/25 10:17:23;;;;;;;11.98;2.30;;;11.30;94.90;;;;;;5002295;28;20080;-66
2023/04/25 10:19:49;;;;;;;6.55;2.00;;;11.90;92.60;;;;;;4970312;28;20109;-66
2023/04/25 10:22:20;;;;;;;14.73;2.95;;;12.00;91.90;;;;;;4989093;28;20500;-67
2023/04/25 10:24:46;;;;;;;10.32;2.03;;;11.80;91.90;;;;;;4987402;28;20023;-66
2023/04/25 10:27:13;;;;;;;11.82;2.47;;;11.80;93.10;;;;;;4987891;28;20038;-66
2023/04/25 10:29:38;;;;;;;11.70;2.60;;;11.80;91.00;;;;;;4988305;28;20026;-67
2023/04/25 10:32:04;;;;;;;9.10;2.50;;;11.60;91.90;;;;;;4983539;28;20029;-66
2023/04/25 10:34:46;;;;;;;5.53;1.90;;;11.70;91.30;;;;;;4989773;28;20029;-66
2023/04/25 10:37:12;;;;;;;4.38;1.75;;;11.40;92.10;;;;;;4979198;28;20026;-65
2023/04/25 10:39:40;;;;;;;7.95;2.15;;;11.60;91.90;;;;;;4989611;28;20583;-66
2023/04/25 10:42:07;;;;;;;9.93;1.85;;;11.50;92.00;;;;;;4979405;28;20106;-66
2023/04/25 10:44:33;;;;;;;5.38;2.38;;;11.60;91.80;;;;;;4985097;28;20041;-67
2023/04/25 10:47:01;;;;;;;12.18;3.13;;;11.50;91.70;;;;;;4985529;28;20050;-67
2023/04/25 10:49:30;;;;;;;9.73;2.60;;;11.60;92.20;;;;;;4982840;28;20033;-66
2023/04/25 10:52:13;;;;;;;10.95;2.10;;;11.80;91.80;;;;;;4989469;28;20084;-66
2023/04/25 10:54:51;;;;;;;6.55;1.67;;;11.80;91.20;;;;;;4988062;28;20041;-66
2023/04/25 10:57:38;;;;;;;8.07;2.08;;;11.40;91.30;;;;;;4981810;28;20114;-66
2023/04/25 11:00:05;;;;;;;6.93;1.67;;;11.70;92.90;;;;;;4983317;28;20026;-66
2023/04/25 11:02:30;;;;;;;9.27;1.95;;;12.10;92.00;;;;;;4985974;28;20034;-65
2023/04/25 11:04:56;;;;;;;8.38;1.65;;;12.50;92.00;;;;;;4982692;28;20030;-66
2023/04/25 11:07:37;;;;;;;6.05;1.88;;;12.50;91.40;;;;;;4986351;28;20042;-66
2023/04/25 11:10:04;;;;;;;8.45;2.22;;;12.30;92.00;;;;;;4987197;28;20022;-66
2023/04/25 11:12:31;;;;;;;7.68;1.40;;;12.30;91.40;;;;;;5001371;28;20080;-66
2023/04/25 11:15:02;;;;;;;9.98;2.95;;;11.80;91.60;;;;;;4988918;28;20436;-66
2023/04/25 11:17:28;;;;;;;8.32;1.45;;;11.70;91.50;;;;;;4981920;28;20571;-66
2023/04/25 11:19:54;;;;;;;6.93;1.63;;;11.10;92.20;;;;;;4988182;28;20042;-65
2023/04/25 11:22:21;;;;;;;4.90;1.30;;;10.70;92.70;;;;;;4967476;28;20058;-64
2023/04/25 11:24:47;;;;;;;7.88;1.83;;;10.50;90.70;;;;;;4985039;28;20030;-65
2023/04/25 11:27:13;;;;;;;9.18;2.20;;;10.40;91.80;;;;;;4987840;28;20081;-65
2023/04/25 11:29:38;;;;;;;7.05;2.00;;;10.30;92.60;;;;;;5003822;28;20076;-66
2023/04/25 11:32:04;;;;;;;10.35;1.67;;;10.20;93.00;;;;;;4989074;28;20064;-65
2023/04/25 11:34:32;;;;;;;6.07;1.67;;;10.30;93.30;;;;;;5000890;28;20018;-66
2023/04/25 11:36:59;;;;;;;9.50;1.80;;;10.50;92.20;;;;;;4989485;28;20042;-65
2023/04/25 11:39:25;;;;;;;4.40;1.58;;;10.70;92.50;;;;;;4987526;28;20365;-65
2023/04/25 11:41:51;;;;;;;10.05;1.75;;;10.90;91.70;;;;;;4984668;28;20027;-65
2023/04/25 11:44:18;;;;;;;7.78;2.08;;;11.10;92.20;;;;;;4981702;28;20556;-65
2023/04/25 11:46:45;;;;;;;7.22;1.92;;;11.50;92.20;;;;;;4983149;28;20508;-66
2023/04/25 11:49:11;;;;;;;3.72;1.30;;;12.10;90.70;;;;;;4988334;28;20022;-65
2023/04/25 11:51:47;;;;;;;6.70;1.75;;;12.40;88.40;;;;;;4982895;28;21494;-65
2023/04/25 11:54:13;;;;;;;3.58;1.70;;;12.70;87.30;;;;;;4984362;28;20057;-65
2023/04/25 11:56:45;;;;;;;5.80;1.83;;;12.90;89.80;;;;;;4984549;28;22588;-66
2023/04/25 11:59:13;;;;;;;6.80;2.47;;;12.70;87.40;;;;;;4980574;28;20030;-65
2023/04/25 12:01:40;;;;;;;8.15;2.10;;;12.50;87.90;;;;;;4986666;28;20069;-65
2023/04/25 12:04:13;;;;;;;5.45;1.60;;;12.30;86.50;;;;;;5000924;28;20026;-66
2023/04/25 12:06:41;;;;;;;5.88;2.13;;;12.20;87.90;;;;;;4979136;28;20035;-65
2023/04/25 12:09:12;;;;;;;6.45;1.50;;;12.60;89.50;;;;;;4988583;28;20377;-66
2023/04/25 12:11:52;;;;;;;5.82;1.85;;;12.50;87.90;;;;;;4986976;28;20031;-65
2023/04/25 12:14:22;;;;;;;4.13;1.73;;;12.50;86.60;;;;;;4983665;28;20030;-65
2023/04/25 12:16:49;;;;;;;5.20;1.40;;;12.20;87.50;;;;;;5004664;28;20672;-64
2023/04/25 12:19:16;;;;;;;4.22;1.38;;;12.10;89.10;;;;;;4984217;28;20034;-67
2023/04/25 12:21:42;;;;;;;4.35;1.88;;;12.10;85.60;;;;;;4997394;28;20038;-66
2023/04/25 12:24:18;;;;;;;4.47;1.65;;;12.10;84.30;;;;;;4974514;28;20048;-66
2023/04/25 12:26:47;;;;;;;3.85;1.23;;;12.10;85.00;;;;;;4988059;28;20030;-65
2023/04/25 12:29:21;;;;;;;4.47;1.40;;;12.40;86.00;;;;;;4990470;28;20383;-66
2023/04/25 12:31:48;;;;;;;4.45;1.40;;;12.70;81.70;;;;;;4999737;28;20017;-66
2023/04/25 12:34:14;;;;;;;8.20;1.67;;;12.50;82.10;;;;;;4992823;28;20032;-68
2023/04/25 12:36:40;;;;;;;8.15;1.58;;;12.70;81.70;;;;;;4990714;28;20047;-66
2023/04/25 12:39:06;;;;;;;3.17;1.20;;;12.80;79.30;;;;;;5011515;28;20121;-66
2023/04/25 12:41:32;;;;;;;4.80;1.60;;;12.70;80.50;;;;;;4999477;28;20041;-65
2023/04/25 12:43:58;;;;;;;7.30;1.92;;;12.60;78.20;;;;;;4994605;28;20034;-66